Time;durP1;ratioP1;P1;durP2;ratioP2;P2;SDS_P1;SDS_P2;PMS_P1;PMS_P2;Temp;Humidity;BMP_temperature;BMP_pressure;BME280_temperature;BME280_humidity;BME280_pressure;Samples;Min_cycle;Max_cycle;Signal;HPM_P1;HPM_P2
2022/06/17 00:00:56;;;;;;;12.35;9.75;;;;;;;17.01;66.60;102166.47;5189025;28;20034;-75
2022/06/17 00:03:30;;;;;;;14.52;9.57;;;;;;;16.97;67.12;102159.53;5189422;28;20034;-73
2022/06/17 00:06:03;;;;;;;12.25;9.10;;;;;;;16.84;67.44;102160.56;5189391;28;20109;-73
2022/06/17 00:08:39;;;;;;;15.98;10.00;;;;;;;16.69;67.61;102167.84;5189458;28;20035;-74
2022/06/17 00:11:16;;;;;;;13.15;8.98;;;;;;;16.81;67.31;102166.78;5188661;28;20034;-75
2022/06/17 00:13:47;;;;;;;11.77;8.57;;;;;;;16.75;67.63;102164.25;5189242;28;20046;-74
2022/06/17 00:16:21;;;;;;;13.90;9.40;;;;;;;16.82;67.31;102165.00;5189754;28;20045;-74
2022/06/17 00:18:53;;;;;;;16.00;10.30;;;;;;;16.78;67.64;102167.69;5189185;28;20103;-76
2022/06/17 00:21:43;;;;;;;13.20;9.25;;;;;;;16.72;67.90;102169.56;5188982;28;20034;-77
2022/06/17 00:24:17;;;;;;;13.20;10.55;;;;;;;16.58;68.17;102175.03;5189134;28;20042;-74
2022/06/17 00:26:48;;;;;;;15.43;10.48;;;;;;;16.62;68.44;102175.88;5188879;28;20099;-75
2022/06/17 00:29:22;;;;;;;12.10;10.07;;;;;;;16.47;68.61;102175.22;5189075;28;20437;-75
2022/06/17 00:31:54;;;;;;;16.27;11.73;;;;;;;16.46;68.58;102169.97;5189016;28;20045;-76
2022/06/17 00:34:26;;;;;;;11.37;10.20;;;;;;;16.53;69.07;102163.72;5188454;28;20042;-74
2022/06/17 00:37:00;;;;;;;15.27;10.35;;;;;;;16.35;69.50;102168.38;5188881;28;20143;-75
2022/06/17 00:39:36;;;;;;;14.15;9.98;;;;;;;16.25;69.60;102174.66;5189088;28;20435;-74
2022/06/17 00:42:13;;;;;;;12.35;10.18;;;;;;;16.43;70.08;102172.66;5188287;28;20026;-74
2022/06/17 00:45:09;;;;;;;11.73;9.57;;;;;;;16.47;68.87;102191.00;5189108;28;20071;-73
2022/06/17 00:48:06;;;;;;;11.85;10.30;;;;;;;16.58;68.59;102178.56;5189768;28;20038;-74
2022/06/17 00:50:45;;;;;;;13.90;9.73;;;;;;;16.37;69.70;102178.88;5192252;28;20018;-75
2022/06/17 00:53:34;;;;;;;13.93;9.43;;;;;;;16.49;69.54;102172.56;5192053;28;20058;-73
2022/06/17 00:56:15;;;;;;;12.48;10.32;;;;;;;16.35;70.09;102170.13;5191724;28;20031;-76
2022/06/17 00:59:13;;;;;;;10.32;9.20;;;;;;;16.49;69.35;102168.16;5191658;28;20042;-75
2022/06/17 01:01:59;;;;;;;13.63;8.70;;;;;;;16.33;70.09;102170.16;5193429;28;20046;-74
2022/06/17 01:04:45;;;;;;;14.10;9.27;;;;;;;16.41;69.97;102170.06;5191588;28;20577;-76
2022/06/17 01:07:23;;;;;;;10.68;8.57;;;;;;;16.26;70.65;102165.88;5192007;28;20395;-74
2022/06/17 01:10:01;;;;;;;11.23;8.48;;;;;;;16.13;71.62;102159.03;5191970;28;20030;-73
2022/06/17 01:12:52;;;;;;;11.75;8.25;;;;;;;16.23;70.99;102166.78;5191636;28;20065;-74
2022/06/17 01:15:26;;;;;;;9.95;8.40;;;;;;;16.23;71.58;102165.94;5191253;28;20151;-74
2022/06/17 01:17:58;;;;;;;11.55;8.32;;;;;;;16.12;72.03;102162.59;5191809;28;20327;-72
2022/06/17 01:20:31;;;;;;;12.27;8.15;;;;;;;16.12;72.00;102168.69;5191572;28;20151;-74
2022/06/17 01:23:12;;;;;;;12.55;7.70;;;;;;;16.15;72.40;102170.44;5191495;28;20038;-75
2022/06/17 01:25:44;;;;;;;9.55;8.30;;;;;;;16.07;72.65;102172.28;5191623;28;20030;-74
2022/06/17 01:28:18;;;;;;;15.18;8.90;;;;;;;16.18;72.61;102162.47;5191468;28;20026;-72
2022/06/17 01:30:58;;;;;;;8.77;7.30;;;;;;;16.22;72.65;102164.19;5191167;28;20133;-73
2022/06/17 01:33:32;;;;;;;8.57;7.45;;;;;;;16.02;72.93;102162.69;5191445;28;20620;-74
2022/06/17 01:36:14;;;;;;;13.45;7.82;;;;;;;15.95;73.41;102168.91;5191538;28;20038;-73
2022/06/17 01:38:49;;;;;;;9.98;7.85;;;;;;;16.00;73.11;102167.13;5191440;28;20109;-76
2022/06/17 01:41:25;;;;;;;9.55;7.72;;;;;;;16.03;73.80;102160.94;5191452;28;20061;-72
2022/06/17 01:44:00;;;;;;;12.57;8.80;;;;;;;15.88;73.77;102163.78;5191168;28;20027;-74
2022/06/17 01:46:36;;;;;;;9.98;8.30;;;;;;;15.93;73.65;102169.84;5191789;28;20371;-74
2022/06/17 01:49:15;;;;;;;8.50;7.60;;;;;;;15.99;73.67;102168.00;5191766;28;20137;-72
2022/06/17 01:51:53;;;;;;;9.02;7.85;;;;;;;15.90;74.04;102170.75;5192133;28;20056;-74
2022/06/17 01:54:30;;;;;;;9.98;7.55;;;;;;;15.83;74.82;102172.59;5192270;28;20037;-75
2022/06/17 01:57:05;;;;;;;11.27;8.68;;;;;;;15.72;74.84;102174.44;5259964;28;20146;-74
2022/06/17 01:59:42;;;;;;;9.73;7.80;;;;;;;15.69;74.98;102175.34;5191524;28;20041;-75
2022/06/17 02:02:15;;;;;;;8.95;7.03;;;;;;;15.84;74.86;102179.59;5189912;28;20410;-75
2022/06/17 02:04:57;;;;;;;11.80;7.75;;;;;;;15.83;75.00;102182.25;5193072;28;20050;-76
2022/06/17 02:07:36;;;;;;;10.93;7.68;;;;;;;15.60;75.72;102178.09;5201568;28;20044;-73
2022/06/17 02:10:08;;;;;;;10.60;8.70;;;;;;;15.54;75.63;102161.53;5210602;28;20026;-73
2022/06/17 02:12:40;;;;;;;9.02;8.02;;;;;;;15.44;75.60;102166.88;5209834;28;20046;-76
2022/06/17 02:15:12;;;;;;;10.63;7.88;;;;;;;15.79;75.55;102167.38;5209840;28;20030;-73
2022/06/17 02:17:47;;;;;;;8.48;7.53;;;;;;;15.63;75.82;102162.28;5210084;28;20051;-73
2022/06/17 02:20:20;;;;;;;11.70;8.00;;;;;;;15.55;75.98;102177.25;5210740;28;20162;-75
2022/06/17 02:22:58;;;;;;;;;;;;;;;15.88;72.82;102164.66;5210843;28;20110;-73
2022/06/17 02:25:36;;;;;;;8.00;7.15;;;;;;;15.72;75.55;102168.31;5209232;28;19936;-73
2022/06/17 02:28:08;;;;;;;10.80;7.65;;;;;;;15.75;75.88;102165.66;5205477;28;20048;-75
2022/06/17 02:30:42;;;;;;;9.25;8.27;;;;;;;15.54;75.79;102172.03;5192939;28;20039;-74
2022/06/17 02:33:14;;;;;;;16.20;8.50;;;;;;;15.65;76.14;102170.16;5191318;28;20215;-74
2022/06/17 02:36:10;;;;;;;12.90;8.75;;;;;;;15.56;75.94;102178.16;5191604;28;20030;-75
2022/06/17 02:38:42;;;;;;;13.32;8.25;;;;;;;15.55;76.34;102168.50;5192547;28;20136;-77
2022/06/17 02:41:19;;;;;;;12.93;8.50;;;;;;;15.54;75.89;102158.91;5192208;28;20194;-76
2022/06/17 02:43:56;;;;;;;10.80;8.55;;;;;;;15.51;76.22;102165.06;5191096;28;20034;-76
2022/06/17 02:46:38;;;;;;;9.77;8.73;;;;;;;15.47;76.59;102164.22;5191385;28;20405;-76
2022/06/17 02:49:32;;;;;;;10.52;9.20;;;;;;;15.56;76.06;102163.22;5258086;28;20034;-75
2022/06/17 02:52:10;;;;;;;11.55;8.50;;;;;;;15.53;76.61;102165.03;5190829;28;20041;-73
2022/06/17 02:54:54;;;;;;;10.63;8.57;;;;;;;15.52;76.53;102164.19;5190843;28;20060;-74
2022/06/17 02:57:29;;;;;;;11.63;9.10;;;;;;;15.57;77.14;102166.72;5191347;28;20425;-74
2022/06/17 03:00:15;;;;;;;10.07;8.50;;;;;;;15.53;76.92;102175.56;5257186;28;20091;-76
2022/06/17 03:02:56;;;;;;;9.75;8.63;;;;;;;15.38;77.46;102160.84;5189804;28;20026;-77
2022/06/17 03:05:31;;;;;;;9.90;8.63;;;;;;;15.45;77.97;102170.38;5189627;28;20026;-75
2022/06/17 03:08:17;;;;;;;9.60;8.13;;;;;;;15.46;78.26;102161.63;5190415;28;20026;-78
2022/06/17 03:10:52;;;;;;;11.57;8.23;;;;;;;15.41;78.07;102161.66;5190129;28;20467;-75
2022/06/17 03:13:30;;;;;;;12.10;9.27;;;;;;;15.45;78.20;102165.13;5189809;28;20047;-75
2022/06/17 03:16:05;;;;;;;10.05;9.05;;;;;;;15.41;77.45;102168.69;5189606;28;20026;-74
2022/06/17 03:18:37;;;;;;;11.70;9.10;;;;;;;15.36;77.69;102167.84;5190198;28;20125;-76
2022/06/17 03:21:08;;;;;;;10.02;8.90;;;;;;;15.34;77.66;102161.72;5189874;28;20223;-76
2022/06/17 03:23:53;;;;;;;12.43;9.57;;;;;;;15.39;77.96;102168.69;5189267;28;20036;-74
2022/06/17 03:26:30;;;;;;;14.68;9.15;;;;;;;15.31;78.33;102170.50;5189399;28;20038;-74
2022/06/17 03:29:04;;;;;;;12.93;9.15;;;;;;;15.47;77.39;102173.84;5189609;28;20026;-74
2022/06/17 03:31:49;;;;;;;11.68;9.15;;;;;;;15.37;77.06;102183.59;5189132;28;20030;-74
2022/06/17 03:34:31;;;;;;;14.85;9.07;;;;;;;15.42;77.46;102180.91;5189478;28;20471;-75
2022/06/17 03:37:24;;;;;;;13.52;10.02;;;;;;;15.41;76.87;102189.69;5255858;28;20502;-74
2022/06/17 03:40:03;;;;;;;12.43;9.00;;;;;;;15.41;76.91;102193.19;5189591;28;20456;-75
2022/06/17 03:42:45;;;;;;;14.35;8.98;;;;;;;15.49;77.37;102203.63;5255961;28;20035;-75
2022/06/17 03:45:25;;;;;;;11.95;8.82;;;;;;;15.61;76.86;102211.34;5189277;28;20054;-74
2022/06/17 03:48:02;;;;;;;12.77;8.95;;;;;;;15.65;77.04;102204.34;5188965;28;20103;-74
2022/06/17 03:50:36;;;;;;;11.13;9.25;;;;;;;15.66;76.25;102206.94;5189759;28;20026;-74
2022/06/17 03:53:23;;;;;;;11.40;9.05;;;;;;;15.98;77.06;102212.72;5189143;28;20030;-72
2022/06/17 03:55:59;;;;;;;11.75;9.32;;;;;;;15.99;77.68;102212.72;5189110;28;20037;-74
2022/06/17 03:58:32;;;;;;;9.35;8.13;;;;;;;16.04;76.69;102208.25;5189216;28;20619;-73
2022/06/17 04:01:17;;;;;;;12.25;8.85;;;;;;;16.06;77.05;102205.59;5188952;28;20054;-74
2022/06/17 04:03:56;;;;;;;13.15;9.45;;;;;;;16.13;77.49;102194.13;5189033;28;20066;-72
2022/06/17 04:06:34;;;;;;;10.98;9.20;;;;;;;16.12;75.67;102188.88;5188838;28;20113;-75
2022/06/17 04:09:17;;;;;;;14.07;9.15;;;;;;;16.21;76.56;102194.00;5168399;28;20062;-73
2022/06/17 04:11:51;;;;;;;9.93;8.93;;;;;;;16.28;75.00;102193.03;5168414;28;20042;-75
2022/06/17 04:14:47;;;;;;;14.60;9.20;;;;;;;16.33;74.75;102191.22;5182121;28;20038;-75
2022/06/17 04:17:21;;;;;;;10.93;8.93;;;;;;;16.30;73.42;102190.38;5188339;28;20123;-74
2022/06/17 04:20:17;;;;;;;16.60;10.07;;;;;;;16.46;73.65;102196.31;5188939;28;20062;-75
2022/06/17 04:22:51;;;;;;;11.65;9.20;;;;;;;16.50;73.83;102192.72;5189943;28;20034;-74
2022/06/17 04:25:30;;;;;;;13.32;8.70;;;;;;;16.57;72.74;102181.22;5192527;28;20095;-76
2022/06/17 04:28:06;;;;;;;12.15;8.70;;;;;;;16.64;71.17;102172.31;5259751;28;20037;-75
2022/06/17 04:30:46;;;;;;;11.23;8.77;;;;;;;16.66;71.90;102181.03;5191963;28;20038;-76
2022/06/17 04:33:21;;;;;;;11.75;7.72;;;;;;;16.76;72.70;102182.66;5191615;28;20046;-76
2022/06/17 04:36:04;;;;;;;15.00;9.02;;;;;;;16.77;72.24;102179.09;5192469;28;20058;-78
2022/06/17 04:38:53;;;;;;;12.45;8.82;;;;;;;16.87;71.86;102179.88;5192056;28;20041;-75
2022/06/17 04:41:30;;;;;;;13.52;8.90;;;;;;;16.82;70.47;102170.28;5192466;28;20114;-76
2022/06/17 04:44:04;;;;;;;11.77;8.57;;;;;;;16.90;70.04;102168.41;5192599;28;20030;-75
2022/06/17 04:46:45;;;;;;;13.90;9.05;;;;;;;16.99;69.71;102165.63;5192225;28;20403;-72
2022/06/17 04:49:23;;;;;;;14.88;9.00;;;;;;;17.07;69.22;102170.75;5192300;28;20597;-74
2022/06/17 04:52:04;;;;;;;11.80;8.38;;;;;;;17.08;68.03;102164.56;5192697;28;20030;-73
2022/06/17 04:54:39;;;;;;;11.43;7.25;;;;;;;17.08;68.57;102154.03;5192564;28;20026;-73
2022/06/17 04:57:11;;;;;;;12.90;8.43;;;;;;;17.20;67.17;102159.09;5191938;28;20117;-74
2022/06/17 04:59:44;;;;;;;12.75;8.45;;;;;;;17.37;67.87;102168.44;5192006;28;20033;-75
2022/06/17 05:02:19;;;;;;;10.48;7.55;;;;;;;17.41;66.96;102144.63;5191772;28;20482;-73
2022/06/17 05:04:58;;;;;;;11.45;7.90;;;;;;;17.48;66.62;102148.91;5192164;28;20034;-74
2022/06/17 05:07:41;;;;;;;8.15;7.10;;;;;;;17.61;67.24;102154.81;5192087;28;20042;-72
2022/06/17 05:10:27;;;;;;;12.77;7.95;;;;;;;17.64;68.43;102151.22;5191942;28;20030;-74
2022/06/17 05:13:25;;;;;;;9.63;7.18;;;;;;;17.76;66.74;102156.25;5191359;28;20050;-74
2022/06/17 05:15:56;;;;;;;12.07;7.65;;;;;;;17.81;65.05;102159.66;5233118;28;20038;-72
2022/06/17 05:18:28;;;;;;;12.23;6.73;;;;;;;17.89;65.17;102161.28;5233255;28;20048;-72
2022/06/17 05:20:59;;;;;;;12.07;7.27;;;;;;;17.90;65.39;102160.38;5232960;28;20045;-72
2022/06/17 05:23:30;;;;;;;8.37;6.30;;;;;;;17.94;66.65;102159.44;5232807;28;20468;-72
2022/06/17 05:26:02;;;;;;;11.43;6.70;;;;;;;17.99;65.62;102152.28;5232983;28;20025;-75
2022/06/17 05:28:33;;;;;;;8.23;6.40;;;;;;;18.01;64.59;102150.47;5233069;28;20371;-73
2022/06/17 05:31:04;;;;;;;10.63;7.47;;;;;;;18.14;61.71;102156.34;5233079;28;20072;-75
2022/06/17 05:33:37;;;;;;;11.37;8.57;;;;;;;18.20;63.17;102153.56;5232625;28;20558;-74
2022/06/17 05:36:08;;;;;;;10.50;7.78;;;;;;;18.33;62.24;102159.41;5232029;28;20030;-74
2022/06/17 05:38:41;;;;;;;14.63;7.77;;;;;;;18.40;62.71;102153.09;5232840;28;20087;-74
2022/06/17 05:41:19;;;;;;;10.07;7.97;;;;;;;18.47;63.07;102157.31;5232801;28;20088;-72
2022/06/17 05:43:52;;;;;;;16.48;9.02;;;;;;;18.59;62.48;102154.41;5232916;28;20439;-74
2022/06/17 05:46:23;;;;;;;12.82;8.05;;;;;;;18.66;61.84;102152.47;5232582;28;20038;-75
2022/06/17 05:48:54;;;;;;;9.63;7.73;;;;;;;18.63;61.93;102151.66;5232548;28;20033;-73
2022/06/17 05:51:27;;;;;;;13.87;8.90;;;;;;;18.59;62.07;102151.75;5232713;28;20025;-72
2022/06/17 05:53:58;;;;;;;11.55;7.63;;;;;;;18.56;62.85;102137.75;5194432;28;20042;-73
2022/06/17 05:56:30;;;;;;;11.47;8.43;;;;;;;18.51;61.78;102135.19;5191452;28;20026;-75
2022/06/17 05:59:01;;;;;;;11.03;8.20;;;;;;;18.55;61.84;102146.59;5191370;28;20031;-73
2022/06/17 06:01:33;;;;;;;10.83;8.13;;;;;;;18.62;62.67;102134.09;5191266;28;20419;-75
2022/06/17 06:04:04;;;;;;;11.57;7.33;;;;;;;18.69;62.90;102130.38;5191723;28;20139;-74
2022/06/17 06:06:36;;;;;;;10.33;7.50;;;;;;;18.76;63.97;102135.47;5191108;28;20086;-74
2022/06/17 06:09:08;;;;;;;9.83;7.93;;;;;;;18.89;60.18;102135.19;5191645;28;20463;-74
2022/06/17 06:11:40;;;;;;;13.15;8.77;;;;;;;18.92;62.53;102120.13;5191297;28;20042;-75
2022/06/17 06:14:12;;;;;;;12.30;6.77;;;;;;;18.97;59.94;102121.78;5192127;28;20415;-74
2022/06/17 06:16:44;;;;;;;;;;;;;;;19.22;60.59;102130.75;5192253;28;20030;-76
2022/06/17 06:19:16;;;;;;;11.45;7.00;;;;;;;19.17;62.21;102123.88;5191276;28;19918;-76
2022/06/17 06:21:47;;;;;;;11.45;6.18;;;;;;;19.13;64.56;102116.03;5191010;28;20345;-77
2022/06/17 06:24:19;;;;;;;10.13;6.23;;;;;;;19.13;65.18;102120.47;5191580;28;20154;-74
2022/06/17 06:26:50;;;;;;;11.03;6.40;;;;;;;19.23;62.58;102115.78;5191476;28;20817;-74
2022/06/17 06:29:21;;;;;;;10.37;5.87;;;;;;;19.28;63.32;102121.81;5191545;28;20026;-76
2022/06/17 06:31:53;;;;;;;7.63;5.53;;;;;;;19.28;61.12;102120.00;5191150;28;20105;-76
2022/06/17 06:34:24;;;;;;;10.20;5.23;;;;;;;19.40;61.73;102141.72;5257828;28;20087;-74
2022/06/17 06:36:56;;;;;;;12.47;5.43;;;;;;;19.42;59.88;102132.00;5191355;28;20029;-75
2022/06/17 06:39:27;;;;;;;8.83;5.67;;;;;;;19.49;60.08;102146.75;5191137;28;20034;-73
2022/06/17 06:41:58;;;;;;;11.10;6.10;;;;;;;19.55;60.27;102148.38;5190897;28;20034;-76
2022/06/17 06:44:30;;;;;;;10.83;5.47;;;;;;;19.63;59.22;102149.03;5190225;28;20502;-78
2022/06/17 06:47:01;;;;;;;10.40;5.67;;;;;;;19.70;57.60;102150.56;5189865;28;20026;-77
2022/06/17 06:49:33;;;;;;;15.40;5.17;;;;;;;19.60;60.66;102143.81;5189667;28;20033;-74
2022/06/17 06:52:04;;;;;;;9.63;5.80;;;;;;;19.56;58.60;102148.34;5190376;28;20026;-76
2022/06/17 06:54:35;;;;;;;9.60;5.17;;;;;;;19.55;60.41;102141.31;5190037;28;20503;-76
2022/06/17 06:57:09;;;;;;;8.13;5.33;;;;;;;19.52;60.94;102144.03;5190143;28;20478;-76
2022/06/17 06:59:40;;;;;;;7.55;5.53;;;;;;;19.57;61.86;102147.41;5256765;28;20049;-74
2022/06/17 07:02:11;;;;;;;8.03;5.67;;;;;;;19.68;58.52;102161.19;5190311;28;20468;-76
2022/06/17 07:04:43;;;;;;;8.97;5.50;;;;;;;19.68;59.37;102155.91;5190561;28;20031;-75
2022/06/17 07:07:14;;;;;;;9.17;5.27;;;;;;;19.85;60.46;102158.09;5190225;28;20170;-75
2022/06/17 07:09:45;;;;;;;11.47;5.80;;;;;;;20.02;57.22;102154.91;5190417;28;20034;-77
2022/06/17 07:12:17;;;;;;;8.30;6.33;;;;;;;20.13;56.47;102153.75;5190207;28;20802;-77
2022/06/17 07:14:48;;;;;;;13.77;5.93;;;;;;;20.23;56.85;102156.03;5190009;28;20544;-75
2022/06/17 07:17:19;;;;;;;11.37;5.17;;;;;;;20.27;57.10;102142.69;5189989;28;20513;-76
2022/06/17 07:19:51;;;;;;;10.93;5.60;;;;;;;20.34;57.76;102137.16;5190560;28;20141;-74
2022/06/17 07:22:22;;;;;;;11.20;5.30;;;;;;;20.44;57.94;102137.72;5189798;28;20023;-76
2022/06/17 07:24:54;;;;;;;6.77;4.93;;;;;;;20.53;55.46;102149.81;5190239;28;20026;-75
2022/06/17 07:27:25;;;;;;;10.30;5.03;;;;;;;20.64;55.66;102144.19;5189766;28;20023;-74
2022/06/17 07:29:56;;;;;;;11.83;5.30;;;;;;;20.71;53.94;102141.28;5189845;28;20058;-74
2022/06/17 07:32:28;;;;;;;8.37;4.93;;;;;;;20.76;54.60;102141.97;5190005;28;20682;-74
2022/06/17 07:34:59;;;;;;;11.83;5.37;;;;;;;20.86;55.63;102144.31;5190068;28;20030;-77
2022/06/17 07:40:21;;;;;;;8.35;4.18;;;;;;;20.99;53.79;102142.13;5190182;28;20030;-75
2022/06/17 07:42:52;;;;;;;7.60;4.57;;;;;;;20.94;52.59;102131.66;5189750;28;20042;-76
2022/06/17 07:45:24;;;;;;;5.73;3.90;;;;;;;20.97;53.35;102142.16;5189842;28;20747;-78
2022/06/17 07:47:57;;;;;;;13.93;4.35;;;;;;;21.10;51.55;102147.91;5190302;28;20143;-74
2022/06/17 07:50:33;;;;;;;7.55;4.10;;;;;;;21.21;52.39;102152.84;5189535;28;20092;-74
2022/06/17 07:53:04;;;;;;;14.63;4.13;;;;;;;21.42;53.41;102143.22;5189713;28;20038;-75
2022/06/17 07:55:36;;;;;;;6.40;3.67;;;;;;;21.47;53.83;102141.28;5256395;28;20042;-76
2022/06/17 07:58:11;;;;;;;10.50;3.80;;;;;;;21.61;51.03;102143.44;5188361;28;20109;-76
2022/06/17 08:00:44;;;;;;;6.47;3.80;;;;;;;21.75;49.09;102137.59;5189463;28;20026;-74
2022/06/17 08:03:17;;;;;;;7.72;3.40;;;;;;;21.92;49.98;102137.81;5189045;28;20459;-73
2022/06/17 08:05:52;;;;;;;7.68;3.95;;;;;;;21.93;47.19;102144.88;5189265;28;20041;-72
2022/06/17 08:08:24;;;;;;;9.30;3.55;;;;;;;22.10;47.47;102149.50;5189002;28;20394;-77
2022/06/17 08:10:58;;;;;;;7.05;3.72;;;;;;;22.13;48.99;102152.03;5189771;28;20030;-77
2022/06/17 08:13:29;;;;;;;7.30;3.95;;;;;;;22.12;47.93;102160.94;5189230;28;20141;-77
2022/06/17 08:16:06;;;;;;;8.67;3.90;;;;;;;22.18;48.33;102163.31;5189541;28;20026;-75
2022/06/17 08:18:39;;;;;;;7.75;3.50;;;;;;;22.38;48.32;102161.72;5189601;28;20551;-74
2022/06/17 08:21:11;;;;;;;5.70;3.15;;;;;;;22.49;48.70;102159.50;5189737;28;20076;-75
2022/06/17 08:23:43;;;;;;;10.18;4.07;;;;;;;22.68;46.81;102158.72;5188999;28;20055;-76
2022/06/17 08:26:14;;;;;;;7.25;3.33;;;;;;;22.72;47.46;102157.66;5189086;28;20042;-73
2022/06/17 08:28:46;;;;;;;9.50;4.07;;;;;;;22.90;46.63;102167.50;5189221;28;20053;-75
2022/06/17 08:31:17;;;;;;;6.73;3.57;;;;;;;23.00;44.72;102154.66;5189601;28;20027;-74
2022/06/17 08:33:48;;;;;;;5.80;2.90;;;;;;;23.24;46.60;102154.56;5189246;28;20034;-75
2022/06/17 08:36:25;;;;;;;6.17;3.13;;;;;;;23.49;44.63;102147.22;5188883;28;20090;-77
2022/06/17 08:39:01;;;;;;;7.65;3.20;;;;;;;23.49;44.42;102136.56;5188705;28;20545;-74
2022/06/17 08:41:36;;;;;;;7.13;3.53;;;;;;;23.61;42.78;102135.13;5189058;28;20035;-77
2022/06/17 08:44:28;;;;;;;8.88;3.45;;;;;;;23.43;44.80;102131.50;5188625;28;20092;-76
2022/06/17 08:47:21;;;;;;;9.70;3.60;;;;;;;23.57;44.64;102125.56;5188966;28;20530;-74
2022/06/17 08:50:07;;;;;;;7.60;3.00;;;;;;;23.53;43.49;102131.09;5188876;28;20096;-78
2022/06/17 08:52:41;;;;;;;9.60;3.50;;;;;;;23.45;43.63;102142.09;5188855;28;20086;-76
2022/06/17 08:55:34;;;;;;;9.02;3.72;;;;;;;23.61;43.39;102153.75;5188688;28;20038;-78
2022/06/17 08:58:20;;;;;;;7.30;3.20;;;;;;;23.75;42.74;102141.63;5188802;28;20156;-78
2022/06/17 09:01:03;;;;;;;8.27;3.22;;;;;;;23.90;42.82;102138.25;5188423;28;20026;-75
2022/06/17 09:03:48;;;;;;;6.20;3.45;;;;;;;23.95;42.76;102143.34;5188362;28;20392;-74
2022/06/17 09:06:22;;;;;;;13.57;4.35;;;;;;;24.14;40.48;102143.34;5188269;28;20138;-74
2022/06/17 09:09:26;;;;;;;8.93;4.70;;;;;;;24.14;41.96;102148.66;5189154;28;20062;-79
2022/06/17 09:12:10;;;;;;;10.32;4.47;;;;;;;24.20;40.53;102145.72;5233322;28;20045;-72
2022/06/17 09:15:35;;;;;;;12.98;5.10;;;;;;;24.48;39.97;102149.66;5233505;28;20071;-74
2022/06/17 09:18:10;;;;;;;10.90;4.03;;;;;;;24.67;40.38;102133.66;5152043;29;20061;-73
2022/06/17 09:20:45;;;;;;;8.65;3.97;;;;;;;24.64;39.90;102128.47;5151836;29;20517;-77
2022/06/17 09:23:21;;;;;;;8.40;3.80;;;;;;;24.75;38.52;102129.63;5151730;29;20035;-75
2022/06/17 09:25:55;;;;;;;9.13;3.83;;;;;;;24.75;39.81;102136.78;5151487;29;20456;-75
2022/06/17 09:28:46;;;;;;;12.40;4.07;;;;;;;24.89;39.62;102142.28;5151722;29;20027;-75
2022/06/17 09:31:25;;;;;;;13.25;4.10;;;;;;;24.86;39.98;102141.53;5151587;29;20495;-76
2022/06/17 09:34:20;;;;;;;6.80;3.25;;;;;;;25.09;39.94;102140.34;5151601;29;20044;-78
2022/06/17 09:37:17;;;;;;;5.60;3.20;;;;;;;25.09;39.33;102135.88;5151280;29;20046;-74
2022/06/17 09:39:48;;;;;;;7.57;3.45;;;;;;;25.38;38.03;102138.84;5150073;29;20039;-76
2022/06/17 09:42:24;;;;;;;13.47;4.40;;;;;;;25.41;38.18;102138.66;5151451;29;20035;-74
2022/06/17 09:45:19;;;;;;;9.98;4.05;;;;;;;25.36;37.01;102127.38;5151417;29;20047;-74
2022/06/17 09:48:16;;;;;;;11.18;3.47;;;;;;;25.79;38.14;102133.03;5154292;28;20310;-77
2022/06/17 09:51:00;;;;;;;5.85;3.35;;;;;;;25.92;38.62;102127.88;5191180;28;20532;-76
2022/06/17 09:53:54;;;;;;;11.63;4.95;;;;;;;25.71;37.01;102140.59;5191240;28;20023;-74
2022/06/17 09:56:42;;;;;;;6.13;2.97;;;;;;;25.75;36.74;102136.81;5190859;28;20057;-76
2022/06/17 09:59:17;;;;;;;8.77;3.60;;;;;;;25.92;39.12;102135.88;5191254;28;20507;-79
2022/06/17 10:01:48;;;;;;;6.82;3.38;;;;;;;26.02;38.06;102130.91;5191112;28;20022;-74
2022/06/17 10:04:20;;;;;;;8.25;3.03;;;;;;;26.11;35.53;102133.03;5191281;28;20049;-76
2022/06/17 10:07:04;;;;;;;6.03;3.03;;;;;;;26.30;34.83;102115.94;5190579;28;20030;-77
2022/06/17 10:09:44;;;;;;;6.20;2.85;;;;;;;26.56;35.32;102120.63;5190718;28;20077;-77
2022/06/17 10:12:36;;;;;;;4.18;2.30;;;;;;;26.98;38.01;102115.47;5190792;28;20391;-75
2022/06/17 10:15:41;;;;;;;6.50;2.70;;;;;;;26.72;33.38;102112.56;5190899;28;20369;-74
2022/06/17 10:19:01;;;;;;;6.32;2.58;;;;;;;26.71;33.84;102115.31;5190690;28;20044;-73
2022/06/17 10:21:57;;;;;;;4.95;2.67;;;;;;;27.02;34.97;102106.31;5189948;28;20091;-77
2022/06/17 10:24:50;;;;;;;5.78;2.25;;;;;;;27.31;32.42;102109.00;5190506;28;20134;-75
2022/06/17 10:27:46;;;;;;;3.05;2.03;;;;;;;27.45;31.71;102095.63;5190358;28;20388;-76
2022/06/17 10:30:27;;;;;;;8.10;2.65;;;;;;;27.29;33.85;102101.03;5190319;28;20030;-74
2022/06/17 10:32:58;;;;;;;6.57;2.65;;;;;;;27.64;33.61;102087.25;5190651;28;20426;-74
2022/06/17 10:35:34;;;;;;;5.35;1.88;;;;;;;27.92;34.37;102098.84;5190480;28;20038;-75
2022/06/17 10:38:10;;;;;;;4.50;2.20;;;;;;;28.07;30.83;102090.78;5190176;28;20073;-74
2022/06/17 10:40:42;;;;;;;6.30;2.28;;;;;;;28.17;32.17;102097.25;5190046;28;20336;-75
2022/06/17 10:43:15;;;;;;;;;;;;;;;28.61;32.67;102089.84;5190629;28;20082;-74
2022/06/17 10:45:49;;;;;;;5.30;2.10;;;;;;;28.84;31.46;102096.34;5190118;28;20018;-73
2022/06/17 10:48:23;;;;;;;9.23;2.58;;;;;;;29.07;29.26;102094.69;5189805;28;20038;-75
2022/06/17 10:50:54;;;;;;;5.78;2.40;;;;;;;29.05;29.34;102089.44;5190197;28;20189;-76
2022/06/17 10:53:34;;;;;;;;;;;;;;;29.56;31.60;102098.41;5190349;28;20396;-73
2022/06/17 10:56:09;;;;;;;3.95;2.33;;;;;;;29.55;29.23;102085.94;5190043;28;20008;-76
2022/06/17 10:59:01;;;;;;;6.07;2.33;;;;;;;30.10;30.74;102086.38;5189909;28;20502;-75
2022/06/17 11:01:44;;;;;;;;;;;;;;;30.50;28.33;102084.22;5190045;28;20022;-73
2022/06/17 11:04:39;;;;;;;4.10;2.10;;;;;;;30.35;27.46;102080.88;5190154;28;20171;-74
2022/06/17 11:07:16;;;;;;;3.80;1.85;;;;;;;30.91;28.13;102077.44;5189973;28;20042;-74
2022/06/17 11:09:55;;;;;;;5.80;2.22;;;;;;;30.99;31.17;102071.47;5190000;28;20460;-73
2022/06/17 11:12:35;;;;;;;5.10;1.80;;;;;;;31.89;29.88;102057.00;5189815;28;20497;-76
2022/06/17 11:15:43;;;;;;;6.18;2.13;;;;;;;32.50;26.84;102059.03;5189714;28;20038;-76
2022/06/17 11:18:20;;;;;;;5.95;1.70;;;;;;;32.38;25.33;102051.16;5196486;28;20297;-75
2022/06/17 11:21:04;;;;;;;5.03;2.15;;;;;;;32.40;25.44;102052.75;5190307;28;20023;-75
2022/06/17 11:23:41;;;;;;;4.18;2.03;;;;;;;32.62;24.88;102046.34;5189547;28;20026;-74
2022/06/17 11:26:26;;;;;;;4.88;1.88;;;;;;;33.41;24.37;102042.97;5288330;28;20046;-77
2022/06/17 11:29:04;;;;;;;7.50;2.40;;;;;;;33.27;23.89;102042.53;5255986;28;20093;-76
2022/06/17 11:31:39;;;;;;;5.40;2.55;;;;;;;33.71;26.37;102041.19;5189380;28;20480;-75
2022/06/17 11:34:24;;;;;;;3.47;2.45;;;;;;;33.97;24.60;102037.91;5189105;28;20499;-75
2022/06/17 11:37:17;;;;;;;12.40;1.80;;;;;;;34.61;23.93;102036.41;5189471;28;20432;-75
2022/06/17 11:40:07;;;;;;;5.38;2.03;;;;;;;35.39;22.37;102035.19;5256578;28;20023;-75
2022/06/17 11:42:51;;;;;;;5.82;2.42;;;;;;;35.23;21.50;102031.28;5189391;28;20470;-73
2022/06/17 11:45:31;;;;;;;4.53;2.20;;;;;;;35.31;20.23;102033.28;5189921;28;20026;-76
2022/06/17 11:48:05;;;;;;;4.10;2.15;;;;;;;35.38;20.36;102026.22;5189337;28;20360;-76
2022/06/17 11:50:42;;;;;;;3.55;1.90;;;;;;;34.64;21.78;102038.81;5189873;28;20388;-75
2022/06/17 11:53:17;;;;;;;4.25;2.17;;;;;;;34.36;22.80;102029.78;5190336;28;20060;-76
2022/06/17 11:55:49;;;;;;;8.73;2.28;;;;;;;35.24;22.13;102014.06;5190337;28;20019;-76
2022/06/17 11:58:21;;;;;;;4.10;1.70;;;;;;;35.49;20.61;102006.19;5189125;28;20030;-75
2022/06/17 12:00:55;;;;;;;5.30;1.80;;;;;;;35.22;22.33;102007.88;5189440;28;20034;-75
2022/06/17 12:03:29;;;;;;;7.32;2.20;;;;;;;34.38;21.06;102010.69;5189763;28;20370;-76
2022/06/17 12:06:05;;;;;;;3.35;2.10;;;;;;;34.69;20.73;102004.00;5189439;28;20065;-73
2022/06/17 12:09:03;;;;;;;3.65;1.80;;;;;;;33.76;20.23;101990.25;5189081;28;20053;-75
2022/06/17 12:11:45;;;;;;;4.82;1.95;;;;;;;34.28;23.08;101997.19;5190589;28;20057;-77
2022/06/17 12:14:28;;;;;;;5.80;2.72;;;;;;;34.42;22.02;101995.84;5189185;28;20026;-75